createdAt,value
2022-11-29T00:01:01.899Z,101461.41
2022-11-29T00:03:29.128Z,101456.59
2022-11-29T00:05:56.119Z,101397.47
2022-11-29T00:08:24.183Z,101464.69
2022-11-29T00:10:50.647Z,101386.63
2022-11-29T00:13:17.664Z,101434.50
2022-11-29T00:15:44.145Z,101465.69
2022-11-29T00:18:10.616Z,101396.56
2022-11-29T00:20:39.300Z,101449.06
2022-11-29T00:23:06.303Z,101465.16
2022-11-29T00:25:32.992Z,101470.19
2022-11-29T00:27:59.802Z,101407.63
2022-11-29T00:30:26.312Z,101446.78
2022-11-29T00:32:52.816Z,101458.50
2022-11-29T00:35:19.325Z,101459.75
2022-11-29T00:37:45.792Z,101428.31
2022-11-29T00:40:12.874Z,101448.84
2022-11-29T00:42:39.327Z,101396.97
2022-11-29T00:45:06.321Z,101461.66
2022-11-29T00:47:32.744Z,101454.16
2022-11-29T00:49:59.173Z,101463.09
2022-11-29T00:52:25.879Z,101468.06
2022-11-29T00:54:52.341Z,101464.38
2022-11-29T00:57:18.746Z,101441.34
2022-11-29T00:59:45.154Z,101458.41
2022-11-29T01:02:11.705Z,101462.66
2022-11-29T01:04:38.250Z,101468.44
2022-11-29T01:07:04.787Z,101459.91
2022-11-29T01:09:31.273Z,101461.06
2022-11-29T01:11:57.724Z,101465.47
2022-11-29T01:14:24.231Z,101459.06
2022-11-29T01:16:50.815Z,101466.56
2022-11-29T01:19:17.312Z,101491.09
2022-11-29T01:21:43.729Z,101467.13
2022-11-29T01:24:10.267Z,101385.66
2022-11-29T01:26:36.718Z,101461.00
2022-11-29T01:29:03.380Z,101475.13
2022-11-29T01:31:33.685Z,101435.72
2022-11-29T01:34:02.504Z,101469.88
2022-11-29T01:36:29.853Z,101406.47
2022-11-29T01:38:59.494Z,101437.75
2022-11-29T01:41:28.798Z,101446.94
2022-11-29T01:44:01.426Z,101477.25
2022-11-29T01:46:33.934Z,101447.41
2022-11-29T01:49:07.489Z,101472.88
2022-11-29T01:51:36.063Z,101478.69
2022-11-29T01:54:02.826Z,101445.97
2022-11-29T01:56:30.581Z,101480.88
2022-11-29T01:58:57.292Z,101488.13
2022-11-29T02:01:26.026Z,101477.50
2022-11-29T02:03:53.544Z,101402.31
2022-11-29T02:06:20.163Z,101476.63
2022-11-29T02:08:46.774Z,101477.25
2022-11-29T02:11:52.191Z,101478.22
2022-11-29T02:14:46.333Z,101474.81
2022-11-29T02:17:20.253Z,101482.28
2022-11-29T02:20:11.460Z,101481.34
2022-11-29T02:22:54.311Z,101488.91
2022-11-29T02:25:36.066Z,101487.31
2022-11-29T02:28:30.213Z,101487.31
2022-11-29T02:31:14.833Z,101485.72
2022-11-29T02:34:12.131Z,101491.38
2022-11-29T02:36:47.619Z,101494.28
2022-11-29T02:39:42.806Z,101491.75
2022-11-29T02:42:56.622Z,101390.47
2022-11-29T02:45:44.877Z,101492.16
2022-11-29T02:48:41.356Z,101492.81
2022-11-29T02:51:19.872Z,101498.94
2022-11-29T02:54:21.716Z,101500.66
2022-11-29T02:57:18.454Z,101495.63
2022-11-29T02:59:52.979Z,101500.91
2022-11-29T03:02:27.191Z,101504.66
2022-11-29T03:05:03.483Z,101448.06
2022-11-29T03:07:57.914Z,101510.19
2022-11-29T03:10:49.917Z,101513.97
2022-11-29T03:13:28.150Z,101506.13
2022-11-29T03:16:23.546Z,101487.72
2022-11-29T03:18:57.190Z,101523.56
2022-11-29T03:21:39.591Z,101520.38
2022-11-29T03:24:13.641Z,101460.78
2022-11-29T03:26:47.859Z,101461.31
2022-11-29T03:29:23.183Z,101525.72
2022-11-29T03:32:00.232Z,101444.72
2022-11-29T03:35:04.030Z,101530.59
2022-11-29T03:37:45.670Z,101535.00
2022-11-29T03:40:21.338Z,101536.84
2022-11-29T03:42:51.508Z,101527.47
2022-11-29T03:45:21.611Z,101472.00
2022-11-29T03:48:04.780Z,101532.72
2022-11-29T03:50:54.785Z,101494.09
2022-11-29T03:53:50.038Z,101509.31
2022-11-29T03:56:28.754Z,101540.09
2022-11-29T03:59:27.444Z,101538.84
2022-11-29T04:02:19.711Z,101487.03
2022-11-29T04:05:07.890Z,101541.13
2022-11-29T04:07:37.277Z,101548.38
2022-11-29T04:10:03.694Z,101543.03
2022-11-29T04:13:16.263Z,101542.78
2022-11-29T04:15:54.980Z,101547.91
2022-11-29T04:18:58.981Z,101547.28
2022-11-29T04:21:51.766Z,101554.25
2022-11-29T04:24:39.957Z,101554.50
2022-11-29T04:27:49.371Z,101562.09
2022-11-29T04:30:26.073Z,101565.41
2022-11-29T04:33:25.550Z,101556.13
2022-11-29T04:36:01.376Z,101577.38
2022-11-29T04:38:52.909Z,101578.06
2022-11-29T04:41:41.417Z,101580.72
2022-11-29T04:44:16.455Z,101579.66
2022-11-29T04:46:48.723Z,101579.88
2022-11-29T04:49:46.245Z,101582.38
2022-11-29T04:52:30.253Z,101594.47
2022-11-29T04:55:27.805Z,101573.16
2022-11-29T04:58:20.905Z,101584.03
2022-11-29T05:01:31.944Z,101595.59
2022-11-29T05:04:13.746Z,101427.66
2022-11-29T05:07:02.250Z,101594.84
2022-11-29T05:09:34.818Z,101603.97
2022-11-29T05:12:29.322Z,101603.84
2022-11-29T05:15:25.509Z,101604.63
2022-11-29T05:18:48.741Z,101607.94
2022-11-29T05:21:44.214Z,101560.47
2022-11-29T05:24:22.552Z,101603.84
2022-11-29T05:26:57.939Z,101608.44
2022-11-29T05:29:36.099Z,101611.41
2022-11-29T05:32:28.744Z,101619.88
2022-11-29T05:35:04.449Z,101623.78
2022-11-29T05:37:33.842Z,101618.97
2022-11-29T05:40:25.410Z,101626.47
2022-11-29T05:43:06.796Z,101635.44
2022-11-29T05:45:51.941Z,101630.91
2022-11-29T05:48:27.645Z,101499.31
2022-11-29T05:51:29.522Z,101509.41
2022-11-29T05:54:21.501Z,101637.59
2022-11-29T05:57:14.380Z,101645.75
2022-11-29T05:59:43.168Z,101644.13
2022-11-29T06:02:28.339Z,101649.09
2022-11-29T06:05:17.577Z,101645.38
2022-11-29T06:07:56.281Z,101641.63
2022-11-29T06:10:32.866Z,101619.63
2022-11-29T06:13:19.089Z,101623.47
2022-11-29T06:16:08.083Z,101660.78
2022-11-29T06:18:55.663Z,101659.34
2022-11-29T06:21:45.980Z,101661.16
2022-11-29T06:24:26.235Z,101667.34
2022-11-29T06:27:10.801Z,101668.34
2022-11-29T06:29:56.590Z,101671.38
2022-11-29T06:32:47.733Z,101675.66
2022-11-29T06:35:47.807Z,101685.97
2022-11-29T06:38:30.888Z,101691.59
2022-11-29T06:41:02.130Z,101702.97
2022-11-29T06:43:29.545Z,101701.34
2022-11-29T06:46:12.722Z,101704.59
2022-11-29T06:48:45.722Z,101676.84
2022-11-29T06:51:25.085Z,101704.75
2022-11-29T06:54:28.903Z,101701.84
2022-11-29T06:57:24.723Z,101696.72
2022-11-29T07:00:11.713Z,101680.56
2022-11-29T07:02:52.105Z,101710.22
2022-11-29T07:05:29.705Z,101661.13
2022-11-29T07:08:03.049Z,101668.16
2022-11-29T07:10:33.264Z,101713.81
2022-11-29T07:13:00.020Z,101720.34
2022-11-29T07:15:28.240Z,101645.88
2022-11-29T07:18:39.470Z,101721.03
2022-11-29T07:21:21.343Z,101732.88
2022-11-29T07:24:16.112Z,101731.72
2022-11-29T07:27:08.642Z,101735.00
2022-11-29T07:29:35.089Z,101734.72
2022-11-29T07:32:07.321Z,101735.19
2022-11-29T07:34:45.381Z,101725.25
2022-11-29T07:37:30.247Z,101711.38
2022-11-29T07:40:06.873Z,101717.88
2022-11-29T07:42:47.445Z,101668.16
2022-11-29T07:45:32.741Z,101743.94
2022-11-29T07:47:59.663Z,101748.22
2022-11-29T07:50:27.415Z,101746.91
2022-11-29T07:52:55.641Z,101690.84
2022-11-29T07:55:24.793Z,101747.03
2022-11-29T07:57:52.383Z,101754.06
2022-11-29T08:00:20.003Z,101752.03
2022-11-29T08:02:47.574Z,101762.00
2022-11-29T08:05:14.043Z,101708.41
2022-11-29T08:07:41.412Z,101761.94
2022-11-29T08:10:12.465Z,101751.53
2022-11-29T08:12:47.589Z,101767.63
2022-11-29T08:15:15.057Z,101736.84
2022-11-29T08:17:41.575Z,101773.72
2022-11-29T08:20:09.585Z,101725.69
2022-11-29T08:22:36.228Z,101717.31
2022-11-29T08:25:02.968Z,101758.63
2022-11-29T08:27:29.547Z,101696.16
2022-11-29T08:29:56.029Z,101755.22
2022-11-29T08:32:22.550Z,101754.28
2022-11-29T08:34:49.159Z,101741.72
2022-11-29T08:37:15.628Z,101768.75
2022-11-29T08:39:42.034Z,101769.91
2022-11-29T08:42:08.501Z,101767.91
2022-11-29T08:44:35.009Z,101727.78
2022-11-29T08:47:20.080Z,101779.09
2022-11-29T08:50:01.465Z,101738.13
2022-11-29T08:52:51.630Z,101785.88
2022-11-29T08:55:20.807Z,101781.31
2022-11-29T08:57:48.581Z,101785.03
2022-11-29T09:00:16.337Z,101755.56
2022-11-29T09:02:43.129Z,101739.84
2022-11-29T09:05:11.174Z,101773.56
2022-11-29T09:07:38.016Z,101769.22
2022-11-29T09:10:08.225Z,101791.81
2022-11-29T09:12:39.609Z,101786.25
2022-11-29T09:15:11.307Z,101793.25
2022-11-29T09:17:37.797Z,101796.34
2022-11-29T09:20:05.858Z,101806.63
2022-11-29T09:22:32.427Z,101784.50
2022-11-29T09:24:58.878Z,101790.53
2022-11-29T09:27:25.340Z,101810.88
2022-11-29T09:29:51.895Z,101793.41
2022-11-29T09:32:18.386Z,101805.59
2022-11-29T09:34:45.107Z,101818.50
2022-11-29T09:37:11.861Z,101817.09
2022-11-29T09:39:40.249Z,101713.97
2022-11-29T09:42:44.488Z,101824.69
2022-11-29T09:45:18.572Z,101829.19
2022-11-29T09:48:17.358Z,101822.66
2022-11-29T09:50:51.041Z,101821.72
2022-11-29T09:53:36.310Z,101823.47
2022-11-29T09:56:18.169Z,101764.63
2022-11-29T09:58:53.434Z,101821.56
2022-11-29T10:01:25.821Z,101815.38
2022-11-29T10:03:57.382Z,101798.75
2022-11-29T10:06:28.214Z,101842.75
2022-11-29T10:09:02.232Z,101773.38
2022-11-29T10:11:55.517Z,101833.13
2022-11-29T10:14:26.866Z,101826.63
2022-11-29T10:17:04.438Z,101841.16
2022-11-29T10:19:35.103Z,101806.25
2022-11-29T10:22:29.086Z,101791.09
2022-11-29T10:25:00.896Z,101830.22
2022-11-29T10:27:29.644Z,101838.69
2022-11-29T10:29:59.252Z,101833.75
2022-11-29T10:32:28.042Z,101784.59
2022-11-29T10:34:57.525Z,101836.53
2022-11-29T10:37:24.619Z,101800.91
2022-11-29T10:39:58.750Z,101773.59
2022-11-29T10:42:47.366Z,101833.69
2022-11-29T10:45:22.825Z,101845.13
2022-11-29T10:47:51.162Z,101847.13
2022-11-29T10:50:23.002Z,101835.34
2022-11-29T10:52:49.480Z,101833.53
2022-11-29T10:55:17.069Z,101835.13
2022-11-29T10:58:28.340Z,101839.88
2022-11-29T11:01:02.305Z,101841.91
2022-11-29T11:03:34.996Z,101837.13
2022-11-29T11:06:08.104Z,101777.56
2022-11-29T11:08:35.987Z,101839.66
2022-11-29T11:11:04.817Z,101771.47
2022-11-29T11:13:32.679Z,101834.44
2022-11-29T11:16:08.909Z,101835.47
2022-11-29T11:18:37.446Z,101790.41
2022-11-29T11:21:07.587Z,101830.59
2022-11-29T11:23:42.398Z,101826.78
2022-11-29T11:26:13.335Z,101827.78
2022-11-29T11:29:01.227Z,101782.38
2022-11-29T11:31:31.925Z,101841.47
2022-11-29T11:34:23.649Z,101841.47
2022-11-29T11:36:50.342Z,101818.63
2022-11-29T11:39:22.590Z,101842.47
2022-11-29T11:42:10.726Z,101849.19
2022-11-29T11:44:47.508Z,101802.03
2022-11-29T11:47:24.467Z,101855.44
2022-11-29T11:49:55.922Z,101846.00
2022-11-29T11:52:25.611Z,101837.56
2022-11-29T11:54:57.693Z,101849.06
2022-11-29T11:57:26.234Z,101851.09
2022-11-29T12:00:05.032Z,101850.03
2022-11-29T12:02:37.986Z,101851.16
2022-11-29T12:05:17.050Z,101852.84
2022-11-29T12:10:40.481Z,101798.50
2022-11-29T12:13:20.378Z,101853.75
2022-11-29T12:15:49.997Z,101860.59
2022-11-29T12:18:28.040Z,101859.66
2022-11-29T12:21:00.446Z,101846.50
2022-11-29T12:23:39.473Z,101854.84
2022-11-29T12:26:13.649Z,101857.16
2022-11-29T12:28:46.790Z,101857.59
2022-11-29T12:31:16.408Z,101858.66
2022-11-29T12:33:48.881Z,101857.91
2022-11-29T12:36:56.552Z,101801.34
2022-11-29T12:39:52.532Z,101863.44
2022-11-29T12:42:22.346Z,101871.50
2022-11-29T12:45:19.510Z,101804.19
2022-11-29T12:48:18.470Z,101832.78
2022-11-29T12:51:22.246Z,101876.34
2022-11-29T12:53:57.862Z,101877.47
2022-11-29T12:56:33.566Z,101875.41
2022-11-29T12:59:06.188Z,101880.69
2022-11-29T13:01:41.762Z,101882.22
2022-11-29T13:04:26.635Z,101883.06
2022-11-29T13:07:22.217Z,101885.19
2022-11-29T13:10:23.865Z,101890.16
2022-11-29T13:13:21.152Z,101887.88
2022-11-29T13:16:07.497Z,101896.59
2022-11-29T13:18:38.776Z,101889.91
2022-11-29T13:21:13.959Z,101887.88
2022-11-29T13:24:18.183Z,101886.28
2022-11-29T13:26:45.227Z,101892.34
2022-11-29T13:29:16.407Z,101895.25
2022-11-29T13:31:44.308Z,101812.63
2022-11-29T13:34:31.798Z,101904.84
2022-11-29T13:37:03.965Z,101898.53
2022-11-29T13:39:30.396Z,101901.28
2022-11-29T13:42:15.473Z,101904.78
2022-11-29T13:45:00.713Z,101903.81
2022-11-29T13:47:27.263Z,101868.47
2022-11-29T13:50:03.618Z,101838.84
2022-11-29T13:52:43.592Z,101901.66
2022-11-29T13:55:13.073Z,101902.34
2022-11-29T14:00:44.303Z,101911.44
2022-11-29T14:03:33.669Z,101900.66
2022-11-29T14:06:11.026Z,101849.38
2022-11-29T14:09:10.880Z,101842.41
2022-11-29T14:11:38.021Z,101914.19
2022-11-29T14:14:20.813Z,101911.72
2022-11-29T14:16:50.888Z,101914.88
2022-11-29T14:19:34.331Z,101920.91
2022-11-29T14:22:06.840Z,101919.75
2022-11-29T14:24:36.186Z,101912.78
2022-11-29T14:27:05.704Z,101917.50
2022-11-29T14:29:47.518Z,101917.59
2022-11-29T14:32:49.467Z,101917.44
2022-11-29T14:35:27.009Z,101919.44
2022-11-29T14:38:15.969Z,101926.91
2022-11-29T14:40:42.428Z,101928.66
2022-11-29T14:43:37.972Z,101928.50
2022-11-29T14:46:16.768Z,101921.41
2022-11-29T14:48:57.326Z,101938.38
2022-11-29T14:51:26.395Z,101923.41
2022-11-29T14:54:19.905Z,101924.88
2022-11-29T14:56:47.447Z,101917.63
2022-11-29T14:59:42.578Z,101923.97
2022-11-29T15:02:27.470Z,101848.69
2022-11-29T15:04:57.231Z,101925.00
2022-11-29T15:07:32.379Z,101932.72
2022-11-29T15:10:04.854Z,101836.19
2022-11-29T15:12:38.108Z,101922.41
2022-11-29T15:15:27.849Z,101927.03
2022-11-29T15:18:18.218Z,101887.84
2022-11-29T15:21:03.537Z,101935.63
2022-11-29T15:23:40.510Z,101932.41
2022-11-29T15:26:16.127Z,101938.16
2022-11-29T15:28:43.296Z,101937.88
2022-11-29T15:31:13.231Z,101942.56
2022-11-29T15:33:43.223Z,101940.69
2022-11-29T15:36:09.705Z,101951.53
2022-11-29T15:38:47.197Z,101953.53
2022-11-29T15:41:34.401Z,101894.50
2022-11-29T15:44:05.769Z,101927.38
2022-11-29T15:46:34.759Z,101947.06
2022-11-29T15:49:24.301Z,101971.97
2022-11-29T15:52:06.062Z,101965.13
2022-11-29T15:54:42.199Z,101955.56
2022-11-29T15:57:17.852Z,101964.91
2022-11-29T15:59:51.592Z,101974.06
2022-11-29T16:02:33.314Z,101985.34
2022-11-29T16:05:14.592Z,101969.09
2022-11-29T16:07:41.928Z,101936.13
2022-11-29T16:10:23.297Z,101905.25
2022-11-29T16:12:55.103Z,101985.06
2022-11-29T16:15:27.900Z,101991.53
2022-11-29T16:17:54.570Z,101953.88
2022-11-29T16:20:25.480Z,101989.28
2022-11-29T16:23:13.150Z,101935.09
2022-11-29T16:25:53.727Z,101995.53
2022-11-29T16:28:20.361Z,101999.75
2022-11-29T16:30:47.026Z,101999.69
2022-11-29T16:33:23.781Z,101997.00
2022-11-29T16:35:51.910Z,101989.91
2022-11-29T16:38:21.839Z,101999.69
2022-11-29T16:41:20.942Z,101995.53
2022-11-29T16:43:55.568Z,101989.75
2022-11-29T16:46:22.066Z,101997.44
2022-11-29T16:48:57.144Z,101998.75
2022-11-29T16:51:24.981Z,101996.31
2022-11-29T16:53:53.415Z,102003.56
2022-11-29T16:56:25.654Z,101957.34
2022-11-29T16:59:24.777Z,101961.44
2022-11-29T17:01:49.637Z,102018.13
2022-11-29T17:04:23.250Z,102016.94
2022-11-29T17:06:52.323Z,101960.16
2022-11-29T17:09:25.708Z,102019.53
2022-11-29T17:11:52.968Z,102005.44
2022-11-29T17:14:19.375Z,102029.38
2022-11-29T17:16:49.268Z,102027.63
2022-11-29T17:19:16.625Z,102012.66
2022-11-29T17:21:43.536Z,101972.47
2022-11-29T17:24:13.606Z,101976.06
2022-11-29T17:26:40.995Z,102034.50
2022-11-29T17:29:09.416Z,102003.66
2022-11-29T17:31:36.197Z,102040.59
2022-11-29T17:34:02.969Z,102044.06
2022-11-29T17:36:30.584Z,102042.13
2022-11-29T17:38:59.314Z,102043.53
2022-11-29T17:41:27.822Z,102053.78
2022-11-29T17:43:56.032Z,102057.91
2022-11-29T17:46:26.187Z,102018.28
2022-11-29T17:48:53.407Z,102013.22
2022-11-29T17:51:50.477Z,102025.41
2022-11-29T17:54:09.443Z,102055.56
2022-11-29T17:56:36.058Z,102046.69
2022-11-29T17:59:04.102Z,102012.66
2022-11-29T18:01:35.747Z,102058.84
2022-11-29T18:04:05.799Z,102031.31
2022-11-29T18:06:37.987Z,101980.81
2022-11-29T18:09:06.301Z,102061.84
2022-11-29T18:11:44.945Z,102045.00
2022-11-29T18:14:19.537Z,102063.06
2022-11-29T18:16:46.173Z,102068.47
2022-11-29T18:19:16.123Z,102064.06
2022-11-29T18:21:43.067Z,102055.09
2022-11-29T18:24:10.329Z,102058.09
2022-11-29T18:26:37.434Z,102049.63
2022-11-29T18:29:05.506Z,102021.09
2022-11-29T18:31:34.495Z,102083.44
2022-11-29T18:34:03.411Z,102064.00
2022-11-29T18:36:32.675Z,102093.13
2022-11-29T18:39:19.303Z,102088.56
2022-11-29T18:41:48.228Z,102015.34
2022-11-29T18:44:16.801Z,102098.69
2022-11-29T18:46:44.638Z,102111.19
2022-11-29T18:49:13.625Z,102104.66
2022-11-29T18:51:42.941Z,102104.22
2022-11-29T18:54:09.472Z,102104.03
2022-11-29T18:56:37.207Z,102047.72
2022-11-29T18:59:17.142Z,102080.41
2022-11-29T19:01:45.908Z,102013.78
2022-11-29T19:04:15.361Z,102091.91
2022-11-29T19:06:42.977Z,102091.28
2022-11-29T19:09:18.137Z,102098.06
2022-11-29T19:11:44.612Z,102098.91
2022-11-29T19:14:12.758Z,102103.09
2022-11-29T19:16:42.461Z,102100.50
2022-11-29T19:19:09.484Z,102074.75
2022-11-29T19:21:36.179Z,102091.28
2022-11-29T19:24:05.461Z,102110.28
2022-11-29T19:26:32.584Z,102104.47
2022-11-29T19:29:01.156Z,102056.97
2022-11-29T19:31:28.611Z,102100.63
2022-11-29T19:33:56.557Z,102078.44
2022-11-29T19:36:27.481Z,102099.06
2022-11-29T19:38:54.717Z,102067.47
2022-11-29T19:41:27.359Z,102109.25
2022-11-29T19:43:56.473Z,102080.09
2022-11-29T19:46:25.756Z,102090.06
2022-11-29T19:48:55.531Z,102094.06
2022-11-29T19:51:23.342Z,102091.66
2022-11-29T19:53:54.195Z,102104.09
2022-11-29T19:56:21.838Z,102088.31
2022-11-29T19:58:49.035Z,102086.69
2022-11-29T20:01:19.489Z,102116.13
2022-11-29T20:03:46.173Z,102090.59
2022-11-29T20:06:13.719Z,102113.63
2022-11-29T20:08:41.519Z,102096.72
2022-11-29T20:11:14.088Z,102116.03
2022-11-29T20:13:42.334Z,102113.16
2022-11-29T20:16:11.443Z,102117.25
2022-11-29T20:18:41.808Z,102138.84
2022-11-29T20:21:13.629Z,102119.13
2022-11-29T20:23:41.485Z,102119.88
2022-11-29T20:26:13.712Z,102044.06
2022-11-29T20:28:40.201Z,102059.03
2022-11-29T20:31:08.453Z,102127.28
2022-11-29T20:33:35.387Z,102131.78
2022-11-29T20:36:39.456Z,102133.88
2022-11-29T20:39:23.695Z,102126.59
2022-11-29T20:41:53.273Z,102121.19
2022-11-29T20:44:24.214Z,102132.63
2022-11-29T20:46:50.856Z,102094.06
2022-11-29T20:49:18.272Z,102141.50
2022-11-29T20:51:56.422Z,102125.13
2022-11-29T20:54:22.947Z,102071.31
2022-11-29T20:56:49.399Z,102148.69
2022-11-29T20:59:15.856Z,102001.44
2022-11-29T21:01:42.399Z,102032.47
2022-11-29T21:04:08.894Z,102106.78
2022-11-29T21:06:38.984Z,102145.75
2022-11-29T21:09:05.818Z,102047.56
2022-11-29T21:11:32.704Z,102157.44
2022-11-29T21:14:03.539Z,102029.84
2022-11-29T21:16:31.804Z,102146.88
2022-11-29T21:19:01.986Z,102104.09
2022-11-29T21:21:35.113Z,102126.06
2022-11-29T21:24:08.370Z,102141.84
2022-11-29T21:26:42.240Z,102139.63
2022-11-29T21:29:19.436Z,102144.19
2022-11-29T21:31:47.253Z,102141.25
2022-11-29T21:34:13.942Z,102124.75
2022-11-29T21:36:40.824Z,102140.66
2022-11-29T21:39:11.010Z,102142.44
2022-11-29T21:41:37.461Z,102139.47
2022-11-29T21:44:07.171Z,102147.78
2022-11-29T21:46:34.309Z,102139.63
2022-11-29T21:49:00.810Z,102143.00
2022-11-29T21:51:27.313Z,102144.69
2022-11-29T21:53:53.737Z,102155.00
2022-11-29T21:56:20.258Z,102167.97
2022-11-29T21:58:46.664Z,102162.97
2022-11-29T22:01:18.614Z,102161.84
2022-11-29T22:03:45.709Z,102151.88
2022-11-29T22:06:24.375Z,102162.72
2022-11-29T22:08:50.903Z,102160.91
2022-11-29T22:11:31.251Z,102167.13
2022-11-29T22:14:14.597Z,102108.63
2022-11-29T22:16:53.535Z,102178.63
2022-11-29T22:19:22.994Z,102178.94
2022-11-29T22:21:52.154Z,102171.59
2022-11-29T22:24:21.075Z,102154.88
2022-11-29T22:26:48.701Z,102178.16
2022-11-29T22:29:15.671Z,102171.97
2022-11-29T22:31:48.034Z,102161.59
2022-11-29T22:34:14.797Z,102160.09
2022-11-29T22:36:41.653Z,102177.91
2022-11-29T22:39:09.292Z,102168.81
2022-11-29T22:41:39.038Z,102171.38
2022-11-29T22:44:06.283Z,102139.75
2022-11-29T22:46:35.478Z,102181.50
2022-11-29T22:49:03.210Z,102175.53
2022-11-29T22:51:32.407Z,102176.06
2022-11-29T22:54:01.245Z,102145.03
2022-11-29T22:56:31.208Z,102178.94
2022-11-29T22:58:58.058Z,102177.91
2022-11-29T23:01:27.754Z,102184.94
2022-11-29T23:03:56.414Z,102166.50
2022-11-29T23:06:24.593Z,102190.03
2022-11-29T23:08:52.620Z,102186.53
2022-11-29T23:11:21.946Z,102143.28
2022-11-29T23:13:48.479Z,102198.22
2022-11-29T23:16:17.617Z,102150.75
2022-11-29T23:18:45.757Z,102201.13
2022-11-29T23:21:20.790Z,102204.81
2022-11-29T23:23:52.921Z,102203.13
2022-11-29T23:26:46.397Z,102200.41
2022-11-29T23:29:18.126Z,102189.03
2022-11-29T23:31:44.758Z,102119.38
2022-11-29T23:34:12.855Z,102192.94
2022-11-29T23:36:39.377Z,102182.31
2022-11-29T23:39:06.719Z,102195.03
2022-11-29T23:41:34.407Z,102184.72
2022-11-29T23:44:03.523Z,102184.22
2022-11-29T23:46:30.034Z,102189.69
2022-11-29T23:48:56.539Z,102168.03
2022-11-29T23:51:23.013Z,102093.91
2022-11-29T23:53:53.663Z,102195.66
2022-11-29T23:56:21.614Z,102195.84
2022-11-29T23:58:48.407Z,102156.84
